createdAt,value
2018-05-10T00:00:54.543Z,5.30
2018-05-10T00:03:23.288Z,3.33
2018-05-10T00:05:51.353Z,3.63
2018-05-10T00:08:20.177Z,4.87
2018-05-10T00:10:48.216Z,4.00
2018-05-10T00:13:16.268Z,3.73
2018-05-10T00:15:44.312Z,3.33
2018-05-10T00:18:12.384Z,5.40
2018-05-10T00:20:40.421Z,4.60
2018-05-10T00:23:08.485Z,3.43
2018-05-10T00:25:36.524Z,3.70
2018-05-10T00:28:04.580Z,5.53
2018-05-10T00:30:32.632Z,3.27
2018-05-10T00:33:00.679Z,3.27
2018-05-10T00:35:28.732Z,3.90
2018-05-10T00:37:56.788Z,4.27
2018-05-10T00:40:24.843Z,8.23
2018-05-10T00:42:53.684Z,4.73
2018-05-10T00:45:21.720Z,4.80
2018-05-10T00:47:49.779Z,4.57
2018-05-10T00:50:18.073Z,4.87
2018-05-10T00:52:46.167Z,5.53
2018-05-10T00:55:14.188Z,5.80
2018-05-10T00:57:43.016Z,4.57
2018-05-10T01:00:11.091Z,5.30
2018-05-10T01:02:39.158Z,4.70
2018-05-10T01:05:07.964Z,4.13
2018-05-10T01:07:36.804Z,4.40
2018-05-10T01:10:04.958Z,4.50
2018-05-10T01:12:33.768Z,4.23
2018-05-10T01:15:01.823Z,6.43
2018-05-10T01:17:29.879Z,4.57
2018-05-10T01:19:57.936Z,3.70
2018-05-10T01:22:25.997Z,4.70
2018-05-10T01:24:54.812Z,4.30
2018-05-10T01:27:23.091Z,4.73
2018-05-10T01:29:52.050Z,4.63
2018-05-10T01:32:20.211Z,4.80
2018-05-10T01:35:06.146Z,4.57
2018-05-10T01:37:34.183Z,5.63
2018-05-10T01:40:02.237Z,4.90
2018-05-10T01:42:30.579Z,4.87
2018-05-10T01:44:58.889Z,5.13
2018-05-10T01:47:26.945Z,6.70
2018-05-10T01:49:55.047Z,4.13
2018-05-10T01:52:23.075Z,4.00
2018-05-10T01:54:52.117Z,5.07
2018-05-10T01:57:20.254Z,4.80
2018-05-10T01:59:48.305Z,5.63
2018-05-10T02:02:16.447Z,4.10
2018-05-10T02:04:45.279Z,3.87
2018-05-10T02:07:13.444Z,5.20
2018-05-10T02:09:41.507Z,7.47
2018-05-10T02:12:09.680Z,4.07
2018-05-10T02:14:37.798Z,5.13
2018-05-10T02:17:06.744Z,4.03
2018-05-10T02:19:34.839Z,4.20
2018-05-10T02:22:02.916Z,4.40
2018-05-10T02:24:31.225Z,8.47
2018-05-10T02:26:59.266Z,4.20
2018-05-10T02:29:27.383Z,3.80
2018-05-10T02:31:55.449Z,4.97
2018-05-10T02:34:23.510Z,4.93
2018-05-10T02:36:51.603Z,5.33
2018-05-10T02:39:19.745Z,5.90
2018-05-10T02:41:47.780Z,5.33
2018-05-10T02:44:15.872Z,3.77
2018-05-10T02:46:44.034Z,4.40
2018-05-10T02:49:12.868Z,5.63
2018-05-10T02:51:40.916Z,4.90
2018-05-10T02:54:10.029Z,4.50
2018-05-10T02:56:39.001Z,5.23
2018-05-10T02:59:07.083Z,7.17
2018-05-10T03:01:35.371Z,4.40
2018-05-10T03:04:03.449Z,6.73
2018-05-10T03:06:31.513Z,5.20
2018-05-10T03:08:59.577Z,4.70
2018-05-10T03:11:28.524Z,5.50
2018-05-10T03:13:56.705Z,5.57
2018-05-10T03:16:24.747Z,4.93
2018-05-10T03:18:52.968Z,4.87
2018-05-10T03:21:21.039Z,4.73
2018-05-10T03:23:49.199Z,5.43
2018-05-10T03:26:18.204Z,5.83
2018-05-10T03:28:47.371Z,4.17
2018-05-10T03:31:15.428Z,5.27
2018-05-10T03:33:43.476Z,6.60
2018-05-10T03:36:12.296Z,6.73
2018-05-10T03:38:40.343Z,5.73
2018-05-10T03:41:08.409Z,5.00
2018-05-10T03:43:36.451Z,6.47
2018-05-10T03:46:04.523Z,4.90
2018-05-10T03:48:33.519Z,7.43
2018-05-10T03:51:01.577Z,5.10
2018-05-10T03:53:29.616Z,6.47
2018-05-10T03:55:57.735Z,6.43
2018-05-10T03:58:25.779Z,5.17
2018-05-10T04:00:54.084Z,5.83
2018-05-10T04:03:57.717Z,5.77
2018-05-10T04:06:44.835Z,5.00
2018-05-10T04:09:33.396Z,5.33
2018-05-10T04:12:01.497Z,6.90
2018-05-10T04:14:29.536Z,5.67
2018-05-10T04:16:58.359Z,6.50
2018-05-10T04:19:26.407Z,5.13
2018-05-10T04:21:54.471Z,5.23
2018-05-10T04:24:22.514Z,5.27
2018-05-10T04:26:51.345Z,5.50
2018-05-10T04:29:19.465Z,8.90
2018-05-10T04:31:47.518Z,8.87
2018-05-10T04:34:15.561Z,8.37
2018-05-10T04:36:44.381Z,8.50
2018-05-10T04:39:12.432Z,11.67
2018-05-10T04:41:40.489Z,7.03
2018-05-10T04:44:08.533Z,7.27
2018-05-10T04:46:36.591Z,7.27
2018-05-10T04:49:04.636Z,6.23
2018-05-10T04:51:32.696Z,8.30
2018-05-10T04:54:00.744Z,8.07
2018-05-10T04:56:29.565Z,6.87
2018-05-10T04:58:57.615Z,12.00
2018-05-10T05:01:26.436Z,7.40
2018-05-10T05:03:55.253Z,7.70
2018-05-10T05:06:24.072Z,7.47
2018-05-10T05:08:52.176Z,7.00
2018-05-10T05:11:20.180Z,7.37
2018-05-10T05:13:48.348Z,10.13
2018-05-10T05:16:16.400Z,10.23
2018-05-10T05:18:44.496Z,8.23
2018-05-10T05:21:12.651Z,7.77
2018-05-10T05:23:41.523Z,8.27
2018-05-10T05:26:09.575Z,10.33
2018-05-10T05:28:37.737Z,9.43
2018-05-10T05:31:06.597Z,9.80
2018-05-10T05:33:34.703Z,9.37
2018-05-10T05:36:02.806Z,8.40
2018-05-10T05:38:30.898Z,8.63
2018-05-10T05:40:59.749Z,6.93
2018-05-10T05:43:27.823Z,8.53
2018-05-10T05:45:55.844Z,8.63
2018-05-10T05:48:23.900Z,10.00
2018-05-10T05:50:51.941Z,11.47
2018-05-10T05:53:19.999Z,10.53
2018-05-10T05:55:48.832Z,11.20
2018-05-10T05:58:16.895Z,13.07
2018-05-10T06:00:44.933Z,8.83
2018-05-10T06:03:12.999Z,10.97
2018-05-10T06:05:41.048Z,10.27
2018-05-10T06:08:09.872Z,11.73
2018-05-10T06:10:37.924Z,12.53
2018-05-10T06:13:05.976Z,16.30
2018-05-10T06:15:34.095Z,10.90
2018-05-10T06:18:02.094Z,12.40
2018-05-10T06:20:30.905Z,14.87
2018-05-10T06:22:59.727Z,13.07
2018-05-10T06:25:27.820Z,15.87
2018-05-10T06:27:55.880Z,17.23
2018-05-10T06:30:24.696Z,19.30
2018-05-10T06:32:52.763Z,19.07
2018-05-10T06:35:21.575Z,15.40
2018-05-10T06:37:49.679Z,17.77
2018-05-10T06:40:17.795Z,23.10
2018-05-10T06:42:45.856Z,18.03
2018-05-10T06:45:13.923Z,15.63
2018-05-10T06:47:41.984Z,17.40
2018-05-10T06:50:10.820Z,18.93
2018-05-10T06:52:38.872Z,17.97
2018-05-10T06:55:07.696Z,16.53
2018-05-10T06:57:35.756Z,15.37
2018-05-10T07:00:04.578Z,16.77
2018-05-10T07:02:32.651Z,23.17
2018-05-10T07:05:01.464Z,18.53
2018-05-10T07:07:29.514Z,14.33
2018-05-10T07:09:58.100Z,15.50
2018-05-10T07:12:25.808Z,16.03
2018-05-10T07:14:54.631Z,16.20
2018-05-10T07:17:22.696Z,17.50
2018-05-10T07:19:51.528Z,14.67
2018-05-10T07:22:19.596Z,19.57
2018-05-10T07:24:47.660Z,17.30
2018-05-10T07:27:16.485Z,15.95
2018-05-10T07:29:44.543Z,17.35
2018-05-10T07:32:13.364Z,17.00
2018-05-10T07:34:41.433Z,12.68
2018-05-10T07:37:10.256Z,14.57
2018-05-10T07:39:38.321Z,14.35
2018-05-10T07:42:07.231Z,14.30
2018-05-10T07:44:35.206Z,12.98
2018-05-10T07:47:04.031Z,12.10
2018-05-10T07:49:32.084Z,13.68
2018-05-10T07:52:00.182Z,13.20
2018-05-10T07:54:29.020Z,16.37
2018-05-10T07:56:57.068Z,16.77
2018-05-10T07:59:25.904Z,14.07
2018-05-10T08:01:53.956Z,15.10
2018-05-10T08:04:22.796Z,15.90
2018-05-10T08:06:50.843Z,16.75
2018-05-10T08:09:19.675Z,16.20
2018-05-10T08:11:47.759Z,14.75
2018-05-10T08:14:15.820Z,16.60
2018-05-10T08:16:44.640Z,23.27
2018-05-10T08:19:12.700Z,20.65
2018-05-10T08:21:41.524Z,27.20
2018-05-10T08:24:09.616Z,27.98
2018-05-10T08:26:38.658Z,24.10
2018-05-10T08:29:06.724Z,31.23
2018-05-10T08:31:34.771Z,27.73
2018-05-10T08:34:03.611Z,26.40
2018-05-10T08:36:31.745Z,26.37
2018-05-10T08:39:00.487Z,28.00
2018-05-10T08:41:28.617Z,31.40
2018-05-10T08:43:56.677Z,31.40
2018-05-10T08:46:25.500Z,30.70
2018-05-10T08:48:53.560Z,27.07
2018-05-10T08:51:21.625Z,28.92
2018-05-10T08:53:49.688Z,31.43
2018-05-10T08:56:18.512Z,26.87
2018-05-10T08:58:46.570Z,30.00
2018-05-10T09:01:15.400Z,27.07
2018-05-10T09:03:43.452Z,30.97
2018-05-10T09:06:12.276Z,32.45
2018-05-10T09:08:41.094Z,29.37
2018-05-10T09:11:09.159Z,35.10
2018-05-10T09:13:37.213Z,32.13
2018-05-10T09:16:05.285Z,30.70
2018-05-10T09:18:34.105Z,33.38
2018-05-10T09:21:02.164Z,31.33
2018-05-10T09:23:30.224Z,30.62
2018-05-10T09:25:58.292Z,34.00
2018-05-10T09:28:26.384Z,33.73
2018-05-10T09:30:54.447Z,31.25
2018-05-10T09:33:23.264Z,68.75
2018-05-10T09:35:51.323Z,60.00
2018-05-10T09:38:20.146Z,32.67
2018-05-10T09:40:48.204Z,35.05
2018-05-10T09:43:17.023Z,35.80
2018-05-10T09:45:45.860Z,35.45
2018-05-10T09:48:13.910Z,32.47
2018-05-10T09:50:42.753Z,33.58
2018-05-10T09:53:10.802Z,33.37
2018-05-10T09:55:39.637Z,39.03
2018-05-10T09:58:07.687Z,30.20
2018-05-10T10:00:35.792Z,26.75
2018-05-10T10:03:04.084Z,29.30
2018-05-10T10:05:32.154Z,35.42
2018-05-10T10:08:00.246Z,29.85
2018-05-10T10:10:28.316Z,30.48
2018-05-10T10:12:57.137Z,32.83
2018-05-10T10:15:25.210Z,31.90
2018-05-10T10:17:54.241Z,28.97
2018-05-10T10:20:22.324Z,31.30
2018-05-10T10:22:50.403Z,32.23
2018-05-10T10:25:18.537Z,31.93
2018-05-10T10:27:46.611Z,34.03
2018-05-10T10:30:14.663Z,33.33
2018-05-10T10:32:42.738Z,34.90
2018-05-10T10:35:10.780Z,36.97
2018-05-10T10:37:39.628Z,33.30
2018-05-10T10:40:07.696Z,33.60
2018-05-10T10:42:37.273Z,32.73
2018-05-10T10:45:05.328Z,33.27
2018-05-10T10:47:33.391Z,32.20
2018-05-10T10:50:01.441Z,30.83
2018-05-10T10:52:29.624Z,30.97
2018-05-10T10:54:57.674Z,30.17
2018-05-10T10:57:26.506Z,30.27
2018-05-10T10:59:54.634Z,49.50
2018-05-10T11:02:22.616Z,48.23
2018-05-10T11:04:50.663Z,70.10
2018-05-10T11:07:19.483Z,84.20
2018-05-10T11:09:48.314Z,50.13
2018-05-10T11:12:16.368Z,31.33
2018-05-10T11:14:45.191Z,32.27
2018-05-10T11:17:13.387Z,36.50
2018-05-10T11:19:41.441Z,43.07
2018-05-10T11:22:09.500Z,68.87
2018-05-10T11:24:37.551Z,29.23
2018-05-10T11:27:05.612Z,32.63
2018-05-10T11:29:33.664Z,30.70
2018-05-10T11:32:03.230Z,31.60
2018-05-10T11:34:31.288Z,28.60
2018-05-10T11:37:00.126Z,30.87
2018-05-10T11:39:28.175Z,30.07
2018-05-10T11:41:57.006Z,31.53
2018-05-10T11:44:25.148Z,30.10
2018-05-10T11:46:53.880Z,33.73
2018-05-10T11:49:21.936Z,33.60
2018-05-10T11:51:49.987Z,30.93
2018-05-10T11:54:18.041Z,34.60
2018-05-10T11:56:46.108Z,31.83
2018-05-10T11:59:14.920Z,31.27
2018-05-10T12:01:42.984Z,31.90
2018-05-10T12:04:11.803Z,30.80
2018-05-10T12:06:40.631Z,29.53
2018-05-10T12:09:08.677Z,29.53
2018-05-10T12:11:37.500Z,26.00
2018-05-10T12:14:05.557Z,28.80
2018-05-10T12:16:33.623Z,24.53
2018-05-10T12:19:01.676Z,25.43
2018-05-10T12:21:29.778Z,25.77
2018-05-10T12:23:58.567Z,25.93
2018-05-10T12:26:26.760Z,24.73
2018-05-10T12:28:54.820Z,23.87
2018-05-10T12:31:22.908Z,27.63
2018-05-10T12:33:50.972Z,25.60
2018-05-10T12:36:19.804Z,30.43
2018-05-10T12:38:47.930Z,27.97
2018-05-10T12:41:15.976Z,24.97
2018-05-10T12:43:44.035Z,22.67
2018-05-10T12:46:12.144Z,26.20
2018-05-10T12:48:40.263Z,24.87
2018-05-10T12:51:08.264Z,24.87
2018-05-10T12:53:36.326Z,21.17
2018-05-10T12:56:04.398Z,20.40
2018-05-10T12:58:32.483Z,19.30
2018-05-10T13:01:00.568Z,18.40
2018-05-10T13:03:28.623Z,19.10
2018-05-10T13:05:56.715Z,15.63
2018-05-10T13:08:24.864Z,17.93
2018-05-10T13:10:53.701Z,15.70
2018-05-10T13:13:22.232Z,15.07
2018-05-10T13:15:50.260Z,13.40
2018-05-10T13:18:19.087Z,15.73
2018-05-10T13:20:47.143Z,16.07
2018-05-10T13:23:15.980Z,14.40
2018-05-10T13:25:44.024Z,12.97
2018-05-10T13:28:12.855Z,15.83
2018-05-10T13:30:40.944Z,14.57
2018-05-10T13:33:09.004Z,13.20
2018-05-10T13:35:37.828Z,13.80
2018-05-10T13:38:05.900Z,13.80
2018-05-10T13:40:33.956Z,16.80
2018-05-10T13:43:02.011Z,18.57
2018-05-10T13:45:30.070Z,15.40
2018-05-10T13:47:58.124Z,14.93
2018-05-10T13:50:26.959Z,18.90
2018-05-10T13:52:55.067Z,17.47
2018-05-10T13:55:23.836Z,19.57
2018-05-10T13:57:51.884Z,22.40
2018-05-10T14:00:19.943Z,24.83
2018-05-10T14:02:48.002Z,27.63
2018-05-10T14:05:16.064Z,30.90
2018-05-10T14:07:44.117Z,28.30
2018-05-10T14:10:12.176Z,35.33
2018-05-10T14:12:40.227Z,29.67
2018-05-10T14:15:08.296Z,33.00
2018-05-10T14:17:37.120Z,28.30
2018-05-10T14:20:05.179Z,36.53
2018-05-10T14:22:33.997Z,30.53
2018-05-10T14:25:02.056Z,32.13
2018-05-10T14:27:30.876Z,30.60
2018-05-10T14:29:58.931Z,32.10
2018-05-10T14:32:27.049Z,31.33
2018-05-10T14:34:55.045Z,34.33
2018-05-10T14:37:23.156Z,34.10
2018-05-10T14:39:52.031Z,31.20
2018-05-10T14:42:20.083Z,30.23
2018-05-10T14:44:49.080Z,30.47
2018-05-10T14:47:17.139Z,26.67
2018-05-10T14:49:45.332Z,29.27
2018-05-10T14:52:13.377Z,26.80
2018-05-10T14:54:41.432Z,30.03
2018-05-10T14:57:10.259Z,33.23
2018-05-10T14:59:38.315Z,23.80
2018-05-10T15:02:07.134Z,22.73
2018-05-10T15:04:36.048Z,21.43
2018-05-10T15:07:04.096Z,19.90
2018-05-10T15:09:33.666Z,19.43
2018-05-10T15:12:01.726Z,16.50
2018-05-10T15:14:30.547Z,18.53
2018-05-10T15:16:58.599Z,17.97
2018-05-10T15:19:27.424Z,17.17
2018-05-10T15:21:55.476Z,17.13
2018-05-10T15:24:23.536Z,15.57
2018-05-10T15:26:51.595Z,17.87
2018-05-10T15:29:19.656Z,15.47
2018-05-10T15:31:47.728Z,21.20
2018-05-10T15:34:16.643Z,17.03
2018-05-10T15:36:47.224Z,19.53
2018-05-10T15:39:15.260Z,16.90
2018-05-10T15:41:44.085Z,20.37
2018-05-10T15:44:12.142Z,15.23
2018-05-10T15:46:40.968Z,13.97
2018-05-10T15:49:09.020Z,13.03
2018-05-10T15:51:37.081Z,14.33
2018-05-10T15:54:05.127Z,17.83
2018-05-10T15:56:33.188Z,20.43
2018-05-10T15:59:01.995Z,11.90
2018-05-10T16:01:30.065Z,16.27
2018-05-10T16:03:58.880Z,12.67
2018-05-10T16:06:27.701Z,13.27
2018-05-10T16:08:55.751Z,11.03
2018-05-10T16:11:23.806Z,12.17
2018-05-10T16:13:51.951Z,12.17
2018-05-10T16:16:19.904Z,11.90
2018-05-10T16:18:49.563Z,10.53
2018-05-10T16:21:17.621Z,13.63
2018-05-10T16:23:46.442Z,12.97
2018-05-10T16:26:14.492Z,11.90
2018-05-10T16:28:42.536Z,12.40
2018-05-10T16:31:10.596Z,14.83
2018-05-10T16:33:38.730Z,9.83
2018-05-10T16:36:06.688Z,9.80
2018-05-10T16:38:35.515Z,11.10
2018-05-10T16:41:03.573Z,7.77
2018-05-10T16:43:31.619Z,9.17
2018-05-10T16:46:00.443Z,8.70
2018-05-10T16:48:28.488Z,8.60
2018-05-10T16:50:57.308Z,9.00
2018-05-10T16:53:26.147Z,8.07
2018-05-10T16:55:54.184Z,11.60
2018-05-10T16:58:22.997Z,7.73
2018-05-10T17:00:51.816Z,11.30
2018-05-10T17:03:19.863Z,10.03
2018-05-10T17:05:47.935Z,13.20
2018-05-10T17:08:15.977Z,13.37
2018-05-10T17:10:44.024Z,7.77
2018-05-10T17:13:12.845Z,9.57
2018-05-10T17:15:40.907Z,9.67
2018-05-10T17:18:09.720Z,10.07
2018-05-10T17:20:38.559Z,10.20
2018-05-10T17:23:06.609Z,10.03
2018-05-10T17:25:35.524Z,9.57
2018-05-10T17:28:04.333Z,10.27
2018-05-10T17:30:32.377Z,9.40
2018-05-10T17:33:00.433Z,9.73
2018-05-10T17:35:28.480Z,13.40
2018-05-10T17:37:56.531Z,11.00
2018-05-10T17:40:24.580Z,11.13
2018-05-10T17:42:52.641Z,13.23
2018-05-10T17:45:20.690Z,11.37
2018-05-10T17:47:48.743Z,11.57
2018-05-10T17:50:16.804Z,8.50
2018-05-10T17:52:44.861Z,9.47
2018-05-10T17:55:13.680Z,9.87
2018-05-10T17:57:41.731Z,9.67
2018-05-10T18:00:09.788Z,13.07
2018-05-10T18:02:37.848Z,10.10
2018-05-10T18:05:05.896Z,12.17
2018-05-10T18:07:34.719Z,9.90
2018-05-10T18:10:02.766Z,8.97
2018-05-10T18:12:31.583Z,13.00
2018-05-10T18:15:00.400Z,10.70
2018-05-10T18:17:28.460Z,12.17
2018-05-10T18:19:57.284Z,10.57
2018-05-10T18:22:26.092Z,11.83
2018-05-10T18:24:54.134Z,9.07
2018-05-10T18:27:22.197Z,10.63
2018-05-10T18:29:50.244Z,11.27
2018-05-10T18:32:18.307Z,11.90
2018-05-10T18:34:47.140Z,9.63
2018-05-10T18:37:15.199Z,12.90
2018-05-10T18:39:44.020Z,10.23
2018-05-10T18:42:12.084Z,11.30
2018-05-10T18:44:40.903Z,10.17
2018-05-10T18:47:08.960Z,8.37
2018-05-10T18:49:37.083Z,11.37
2018-05-10T18:52:05.149Z,9.23
2018-05-10T18:54:34.032Z,12.33
2018-05-10T18:57:02.021Z,9.70
2018-05-10T18:59:30.836Z,9.67
2018-05-10T19:01:59.731Z,10.57
2018-05-10T19:04:27.728Z,10.33
2018-05-10T19:06:56.552Z,10.03
2018-05-10T19:09:24.617Z,10.20
2018-05-10T19:11:53.112Z,9.90
2018-05-10T19:14:21.173Z,10.10
2018-05-10T19:16:49.324Z,9.53
2018-05-10T19:19:17.384Z,13.70
2018-05-10T19:21:45.432Z,8.50
2018-05-10T19:24:14.263Z,9.30
2018-05-10T19:26:42.317Z,8.63
2018-05-10T19:29:11.148Z,13.33
2018-05-10T19:31:39.971Z,10.50
2018-05-10T19:34:08.040Z,11.73
2018-05-10T19:36:36.104Z,16.53
2018-05-10T19:39:04.937Z,15.77
2018-05-10T19:41:32.993Z,14.67
2018-05-10T19:44:01.827Z,17.47
2018-05-10T19:46:29.915Z,12.57
2018-05-10T19:48:57.986Z,18.67
2018-05-10T19:51:26.036Z,12.23
2018-05-10T19:53:54.879Z,13.90
2018-05-10T19:56:22.934Z,13.93
2018-05-10T19:58:51.889Z,11.67
2018-05-10T20:01:19.938Z,13.63
2018-05-10T20:03:48.000Z,10.73
2018-05-10T20:06:16.816Z,14.43
2018-05-10T20:08:44.880Z,10.67
2018-05-10T20:11:12.928Z,13.13
2018-05-10T20:13:41.000Z,11.07
2018-05-10T20:16:09.053Z,11.93
2018-05-10T20:18:37.877Z,12.37
2018-05-10T20:21:06.002Z,10.13
2018-05-10T20:23:34.763Z,11.17
2018-05-10T20:26:02.902Z,12.13
2018-05-10T20:28:31.849Z,12.23
2018-05-10T20:30:59.800Z,13.73
2018-05-10T20:33:28.629Z,13.03
2018-05-10T20:35:56.695Z,13.53
2018-05-10T20:38:25.524Z,11.47
2018-05-10T20:40:53.707Z,11.27
2018-05-10T20:43:21.772Z,18.87
2018-05-10T20:45:50.592Z,13.10
2018-05-10T20:48:18.687Z,13.77
2018-05-10T20:50:46.743Z,14.53
2018-05-10T20:53:15.567Z,15.77
2018-05-10T20:55:43.631Z,10.53
2018-05-10T20:58:12.453Z,10.27
2018-05-10T21:00:40.514Z,16.07
2018-05-10T21:03:09.328Z,11.70
2018-05-10T21:05:37.387Z,12.73
2018-05-10T21:08:05.445Z,9.53
2018-05-10T21:10:33.500Z,10.93
2018-05-10T21:13:01.571Z,13.90
2018-05-10T21:15:30.396Z,13.40
2018-05-10T21:17:58.454Z,12.23
2018-05-10T21:20:27.278Z,11.27
2018-05-10T21:22:55.332Z,17.17
2018-05-10T21:25:24.166Z,13.10
2018-05-10T21:27:52.220Z,11.23
2018-05-10T21:30:21.043Z,11.07
2018-05-10T21:32:49.099Z,11.07
2018-05-10T21:35:17.925Z,11.10
2018-05-10T21:37:46.017Z,13.90
2018-05-10T21:40:14.150Z,13.53
2018-05-10T21:42:42.912Z,11.07
2018-05-10T21:45:10.961Z,13.77
2018-05-10T21:47:39.799Z,12.03
2018-05-10T21:50:07.860Z,14.00
2018-05-10T21:52:35.916Z,10.87
2018-05-10T21:55:04.007Z,10.60
2018-05-10T21:57:32.038Z,10.77
2018-05-10T22:00:00.093Z,14.33
2018-05-10T22:02:28.909Z,10.73
2018-05-10T22:04:57.037Z,16.97
2018-05-10T22:07:25.084Z,10.30
2018-05-10T22:09:53.173Z,11.17
2018-05-10T22:12:21.232Z,9.73
2018-05-10T22:14:50.059Z,13.17
2018-05-10T22:17:18.104Z,13.73
2018-05-10T22:19:46.935Z,10.20
2018-05-10T22:22:14.987Z,10.90
2018-05-10T22:24:43.056Z,11.33
2018-05-10T22:27:11.109Z,8.43
2018-05-10T22:29:39.182Z,16.03
2018-05-10T22:32:07.240Z,9.73
2018-05-10T22:34:36.072Z,11.30
2018-05-10T22:37:04.135Z,10.33
2018-05-10T22:39:32.967Z,13.67
2018-05-10T22:42:01.024Z,12.73
2018-05-10T22:44:29.941Z,11.97
2018-05-10T22:46:57.901Z,9.13
2018-05-10T22:49:26.722Z,11.37
2018-05-10T22:51:54.808Z,13.40
2018-05-10T22:54:22.864Z,12.10
2018-05-10T22:56:51.689Z,14.83
2018-05-10T22:59:19.788Z,15.90
2018-05-10T23:01:47.861Z,10.00
2018-05-10T23:04:15.911Z,11.23
2018-05-10T23:06:44.013Z,10.07
2018-05-10T23:09:12.831Z,16.63
2018-05-10T23:11:40.888Z,11.40
2018-05-10T23:14:08.943Z,9.23
2018-05-10T23:16:36.999Z,13.03
2018-05-10T23:19:05.098Z,12.70
2018-05-10T23:21:33.160Z,12.63
2018-05-10T23:24:01.212Z,10.07
2018-05-10T23:26:29.277Z,11.60
2018-05-10T23:28:57.396Z,10.87
2018-05-10T23:31:26.221Z,9.40
2018-05-10T23:33:54.271Z,13.37
2018-05-10T23:36:22.336Z,10.70
2018-05-10T23:38:50.394Z,12.03
2018-05-10T23:41:18.457Z,12.20
2018-05-10T23:43:46.512Z,13.70
2018-05-10T23:46:15.342Z,11.37
2018-05-10T23:48:43.395Z,11.60
2018-05-10T23:51:11.453Z,9.07
2018-05-10T23:53:39.499Z,13.33
2018-05-10T23:56:07.568Z,10.73
2018-05-10T23:58:36.380Z,11.67
